Time;durP1;ratioP1;P1;durP2;ratioP2;P2;SDS_P1;SDS_P2;PMS_P1;PMS_P2;Temp;Humidity;BMP_temperature;BMP_pressure;BME280_temperature;BME280_humidity;BME280_pressure;Samples;Min_cycle;Max_cycle;Signal;HPM_P1;HPM_P2
2021/09/21 00:01:26;;;;;;;14.65;9.02;;;14.50;99.90;;;;;;4972878;28;20228;-76
2021/09/21 00:03:53;;;;;;;10.85;8.93;;;14.50;99.90;;;;;;4972731;28;20146;-76
2021/09/21 00:06:20;;;;;;;14.18;10.63;;;14.60;99.90;;;;;;4972912;28;20137;-76
2021/09/21 00:08:47;;;;;;;11.68;9.50;;;14.50;99.90;;;;;;4973020;28;20046;-76
2021/09/21 00:11:14;;;;;;;10.30;8.43;;;14.50;99.90;;;;;;4973185;28;20137;-76
2021/09/21 00:13:42;;;;;;;12.20;8.80;;;14.50;99.90;;;;;;4972527;28;20089;-77
2021/09/21 00:16:09;;;;;;;11.18;8.38;;;14.50;99.90;;;;;;4973093;28;20114;-76
2021/09/21 00:18:37;;;;;;;10.80;8.57;;;14.40;99.90;;;;;;4972796;28;20137;-77
2021/09/21 00:21:04;;;;;;;9.68;8.68;;;14.30;99.90;;;;;;4972681;28;20746;-77
2021/09/21 00:23:31;;;;;;;14.23;8.10;;;14.40;99.90;;;;;;4972825;28;20133;-76
2021/09/21 00:25:58;;;;;;;11.48;9.27;;;14.40;99.90;;;;;;4972204;28;20145;-76
2021/09/21 00:28:25;;;;;;;10.32;8.15;;;14.40;99.90;;;;;;4972341;28;20090;-76
2021/09/21 00:30:54;;;;;;;11.63;9.02;;;14.30;99.90;;;;;;4972469;28;20051;-77
2021/09/21 00:33:23;;;;;;;10.57;8.52;;;14.30;99.90;;;;;;4972537;28;20047;-77
2021/09/21 00:35:53;;;;;;;12.23;8.40;;;14.30;99.90;;;;;;4972475;28;20069;-76
2021/09/21 00:38:22;;;;;;;10.63;8.32;;;14.40;99.90;;;;;;4972517;28;20499;-77
2021/09/21 00:40:50;;;;;;;11.90;9.27;;;14.20;99.90;;;;;;4972461;28;20138;-79
2021/09/21 00:43:21;;;;;;;10.65;8.93;;;14.20;99.90;;;;;;4972583;28;20047;-76
2021/09/21 00:45:48;;;;;;;10.15;8.85;;;14.20;99.90;;;;;;4972096;28;20050;-77
2021/09/21 00:48:17;;;;;;;9.48;8.20;;;14.20;99.90;;;;;;4972027;28;20082;-79
2021/09/21 00:50:43;;;;;;;10.57;8.77;;;14.20;99.90;;;;;;4972457;28;20050;-77
2021/09/21 00:53:10;;;;;;;10.45;8.82;;;14.30;99.90;;;;;;4972184;28;20451;-76
2021/09/21 00:55:38;;;;;;;11.68;9.30;;;14.10;99.90;;;;;;4971724;28;20133;-79
2021/09/21 00:58:05;;;;;;;9.95;8.57;;;14.10;99.90;;;;;;4972518;28;20504;-77
2021/09/21 01:00:32;;;;;;;10.35;9.07;;;14.00;99.90;;;;;;4971773;28;20061;-77
2021/09/21 01:02:59;;;;;;;10.23;8.70;;;14.00;99.90;;;;;;4971920;28;20513;-76
2021/09/21 01:05:27;;;;;;;12.77;8.95;;;13.90;99.90;;;;;;4971890;28;20105;-76
2021/09/21 01:07:54;;;;;;;9.77;8.73;;;14.00;99.90;;;;;;4972067;28;20050;-76
2021/09/21 01:10:24;;;;;;;12.05;8.80;;;14.00;99.90;;;;;;4972192;28;20076;-76
2021/09/21 01:12:52;;;;;;;9.38;8.30;;;14.00;99.90;;;;;;4972081;28;20062;-76
2021/09/21 01:15:19;;;;;;;9.80;8.20;;;13.90;99.90;;;;;;4971695;28;20047;-77
2021/09/21 01:17:47;;;;;;;12.05;8.70;;;14.00;99.90;;;;;;4972016;28;20054;-76
2021/09/21 01:20:16;;;;;;;10.88;8.63;;;14.00;99.90;;;;;;4971730;28;20055;-77
2021/09/21 01:22:44;;;;;;;11.90;8.55;;;14.10;99.90;;;;;;4972021;28;20129;-79
2021/09/21 01:25:14;;;;;;;11.40;8.45;;;14.20;99.90;;;;;;4971567;28;20134;-77
2021/09/21 01:27:41;;;;;;;13.15;9.00;;;14.20;99.90;;;;;;5002518;23;20137;-76
2021/09/21 01:30:12;;;;;;;9.90;8.27;;;14.10;99.90;;;;;;4994539;28;20451;-79
2021/09/21 01:32:39;;;;;;;9.57;8.40;;;14.00;99.90;;;;;;4999513;28;20054;-79
2021/09/21 01:35:08;;;;;;;10.68;8.05;;;14.00;99.90;;;;;;5003336;28;20066;-80
2021/09/21 01:37:35;;;;;;;9.88;8.57;;;14.10;99.90;;;;;;4996149;28;20129;-79
2021/09/21 01:40:04;;;;;;;13.50;8.63;;;14.10;99.90;;;;;;4996585;28;20050;-79
2021/09/21 01:42:31;;;;;;;11.13;8.60;;;14.10;99.90;;;;;;4995352;28;20054;-78
2021/09/21 01:44:57;;;;;;;10.75;8.38;;;14.10;99.90;;;;;;4994609;28;20138;-79
2021/09/21 01:47:24;;;;;;;11.13;8.50;;;14.20;99.90;;;;;;4993943;28;20093;-78
2021/09/21 01:50:17;;;;;;;15.60;8.45;;;14.20;99.90;;;;;;4992810;28;20085;-78
2021/09/21 01:52:49;;;;;;;12.97;8.20;;;14.20;99.90;;;;;;4993787;28;20058;-79
2021/09/21 01:58:15;;;;;;;10.25;9.07;;;14.20;99.90;;;;;;4996220;28;20301;-78
2021/09/21 01:58:19;;;;;;;11.27;8.40;;;14.20;99.90;;;;;;4994460;28;20124;-78
2021/09/21 02:00:46;;;;;;;10.07;8.02;;;14.20;99.90;;;;;;4993337;28;20136;-78
2021/09/21 02:03:13;;;;;;;9.57;8.57;;;14.10;99.90;;;;;;4993099;28;20086;-77
2021/09/21 02:05:40;;;;;;;11.73;8.38;;;14.00;99.90;;;;;;4993062;28;20110;-78
2021/09/21 02:08:07;;;;;;;10.27;8.00;;;14.10;99.90;;;;;;4993343;28;20054;-78
2021/09/21 02:10:35;;;;;;;10.45;8.73;;;14.10;99.90;;;;;;4993042;28;20161;-78
2021/09/21 02:13:02;;;;;;;11.30;8.43;;;14.00;99.90;;;;;;4997272;28;20137;-78
2021/09/21 02:15:31;;;;;;;10.60;7.97;;;14.10;99.90;;;;;;4996604;28;20514;-79
2021/09/21 02:17:59;;;;;;;10.15;8.25;;;14.00;99.90;;;;;;4996095;28;20499;-78
2021/09/21 02:20:27;;;;;;;11.45;7.72;;;14.00;99.90;;;;;;4996900;28;20066;-78
2021/09/21 02:22:54;;;;;;;11.02;7.93;;;14.10;99.90;;;;;;4996333;28;20142;-79
2021/09/21 02:25:21;;;;;;;9.40;7.65;;;14.10;99.90;;;;;;4996489;28;20089;-79
2021/09/21 02:27:49;;;;;;;9.35;7.85;;;14.00;99.90;;;;;;4996923;28;20560;-78
2021/09/21 02:30:16;;;;;;;12.02;7.90;;;14.00;99.90;;;;;;4996212;28;20054;-77
2021/09/21 02:32:44;;;;;;;9.63;8.07;;;14.00;99.90;;;;;;4996794;28;20508;-78
2021/09/21 02:35:11;;;;;;;10.60;8.00;;;14.00;99.90;;;;;;4996355;28;20069;-78
2021/09/21 02:37:38;;;;;;;9.18;7.55;;;13.90;99.90;;;;;;4996783;28;20472;-78
2021/09/21 02:40:08;;;;;;;10.43;8.10;;;14.00;99.90;;;;;;4995933;28;20424;-77
2021/09/21 02:42:35;;;;;;;11.70;8.10;;;14.00;99.90;;;;;;4995606;28;20061;-78
2021/09/21 02:45:05;;;;;;;11.60;7.22;;;14.00;99.90;;;;;;4995869;28;20048;-78
2021/09/21 02:47:32;;;;;;;9.38;8.38;;;14.00;99.90;;;;;;4995572;28;20046;-78
2021/09/21 02:49:58;;;;;;;9.82;8.07;;;13.90;99.90;;;;;;4995578;28;20185;-78
2021/09/21 02:52:25;;;;;;;10.50;7.68;;;13.90;99.90;;;;;;4995530;28;20141;-79
2021/09/21 02:54:52;;;;;;;11.68;7.60;;;13.90;99.90;;;;;;4995263;28;20077;-77
2021/09/21 02:57:19;;;;;;;9.93;8.00;;;13.90;99.90;;;;;;4995258;28;20054;-77
2021/09/21 02:59:46;;;;;;;9.48;8.13;;;13.90;99.90;;;;;;4994865;28;20077;-77
2021/09/21 03:02:15;;;;;;;10.45;7.50;;;13.90;99.90;;;;;;4994823;28;20073;-78
2021/09/21 03:04:49;;;;;;;9.18;7.57;;;13.90;99.90;;;;;;4993865;28;20046;-78
2021/09/21 03:07:25;;;;;;;8.30;7.38;;;13.90;99.90;;;;;;4995539;28;20078;-77
2021/09/21 03:10:02;;;;;;;11.82;8.02;;;13.90;99.90;;;;;;4995086;28;20050;-78
2021/09/21 03:12:42;;;;;;;10.40;7.78;;;13.90;99.90;;;;;;4994849;28;20141;-78
2021/09/21 03:17:55;;;;;;;10.52;8.18;;;13.80;99.90;;;;;;4994516;28;20052;-77
2021/09/21 03:20:22;;;;;;;15.48;8.75;;;13.80;99.90;;;;;;4979771;28;20058;-78
2021/09/21 03:22:49;;;;;;;11.50;8.95;;;13.80;99.90;;;;;;4973670;28;20173;-78
2021/09/21 03:25:16;;;;;;;8.57;7.63;;;13.90;99.90;;;;;;4974176;28;20074;-77
2021/09/21 03:27:43;;;;;;;8.85;7.55;;;13.80;99.90;;;;;;4974029;28;20057;-77
2021/09/21 03:30:11;;;;;;;9.88;7.65;;;13.80;99.90;;;;;;4974400;28;20338;-78
2021/09/21 03:32:38;;;;;;;9.77;7.78;;;13.70;99.90;;;;;;4973874;28;20051;-77
2021/09/21 03:35:07;;;;;;;10.75;8.02;;;13.70;99.90;;;;;;4973994;28;20129;-77
2021/09/21 03:37:35;;;;;;;9.35;7.75;;;13.60;99.90;;;;;;4974181;28;20057;-78
2021/09/21 03:40:02;;;;;;;9.35;7.45;;;13.70;99.90;;;;;;4973728;28;20087;-78
2021/09/21 03:42:29;;;;;;;8.93;7.55;;;13.70;99.90;;;;;;4973559;28;20074;-76
2021/09/21 03:44:56;;;;;;;8.30;7.45;;;13.70;99.90;;;;;;4974524;28;20057;-78
2021/09/21 03:47:23;;;;;;;10.15;7.70;;;13.80;99.90;;;;;;4974133;28;20135;-78
2021/09/21 03:49:50;;;;;;;8.77;7.72;;;13.80;99.90;;;;;;4974299;28;20082;-78
2021/09/21 03:52:18;;;;;;;8.75;7.40;;;13.70;99.90;;;;;;4972987;28;20047;-78
2021/09/21 03:54:45;;;;;;;11.07;8.15;;;13.70;99.90;;;;;;4973563;28;20187;-77
2021/09/21 03:57:12;;;;;;;11.57;7.78;;;13.60;99.90;;;;;;4973477;28;20082;-77
2021/09/21 03:59:39;;;;;;;11.23;8.13;;;13.50;99.90;;;;;;4973362;28;20050;-77
2021/09/21 04:02:06;;;;;;;10.15;7.45;;;13.50;99.90;;;;;;4972956;28;20054;-77
2021/09/21 04:04:33;;;;;;;9.05;7.68;;;13.40;99.90;;;;;;4973594;28;20425;-77
2021/09/21 04:07:00;;;;;;;10.20;8.07;;;13.40;99.90;;;;;;4973813;28;20138;-78
2021/09/21 04:09:28;;;;;;;9.70;8.57;;;13.40;99.90;;;;;;4973543;28;20139;-77
2021/09/21 04:11:55;;;;;;;10.25;7.75;;;13.30;99.90;;;;;;4973362;28;20457;-77
2021/09/21 04:14:22;;;;;;;9.38;7.32;;;13.30;99.90;;;;;;4993241;28;20088;-77
2021/09/21 04:16:49;;;;;;;11.65;8.18;;;13.30;99.90;;;;;;4993197;28;20089;-76
2021/09/21 04:19:16;;;;;;;11.75;7.43;;;13.30;99.90;;;;;;4993277;28;20701;-77
2021/09/21 04:21:43;;;;;;;11.20;7.72;;;13.30;99.90;;;;;;4992178;28;20424;-77
2021/09/21 04:24:10;;;;;;;11.48;8.00;;;13.30;99.90;;;;;;4992925;28;20058;-77
2021/09/21 04:26:38;;;;;;;13.77;7.85;;;13.30;99.90;;;;;;4993274;28;20468;-77
2021/09/21 04:29:05;;;;;;;9.55;7.53;;;13.30;99.90;;;;;;4993305;28;20046;-77
2021/09/21 04:31:33;;;;;;;9.60;8.30;;;13.30;99.90;;;;;;4993471;28;20077;-76
2021/09/21 04:34:00;;;;;;;9.52;7.85;;;13.30;99.90;;;;;;4993345;28;20516;-76
2021/09/21 04:36:27;;;;;;;11.77;7.45;;;13.30;99.90;;;;;;4993112;28;20129;-76
2021/09/21 04:38:54;;;;;;;10.68;7.68;;;13.30;99.90;;;;;;4992097;28;20061;-77
2021/09/21 04:41:20;;;;;;;10.40;7.97;;;13.30;99.90;;;;;;4993657;28;20138;-77
2021/09/21 04:43:49;;;;;;;11.38;8.38;;;13.30;99.90;;;;;;4990136;28;20072;-78
2021/09/21 04:46:16;;;;;;;10.50;7.90;;;13.30;99.90;;;;;;4994636;28;20046;-78
2021/09/21 04:48:43;;;;;;;8.57;7.63;;;13.40;99.90;;;;;;4993955;28;20137;-77
2021/09/21 04:51:10;;;;;;;9.32;7.50;;;13.40;99.90;;;;;;4992500;28;20046;-78
2021/09/21 04:53:37;;;;;;;9.40;7.55;;;13.40;99.90;;;;;;4992273;28;20114;-77
2021/09/21 04:56:04;;;;;;;9.48;7.97;;;13.40;99.90;;;;;;4992982;28;20129;-78
2021/09/21 04:58:31;;;;;;;10.73;7.78;;;13.40;99.90;;;;;;4992969;28;20475;-78
2021/09/21 05:00:59;;;;;;;13.35;7.80;;;13.30;99.90;;;;;;4992078;28;20094;-76
2021/09/21 05:03:26;;;;;;;12.95;7.57;;;13.30;99.90;;;;;;4992653;28;20488;-77
2021/09/21 05:05:53;;;;;;;11.43;7.68;;;13.30;99.90;;;;;;4992950;28;20050;-76
2021/09/21 05:08:20;;;;;;;10.25;7.80;;;13.30;99.90;;;;;;4993047;28;20047;-76
2021/09/21 05:10:47;;;;;;;8.30;7.40;;;13.30;99.90;;;;;;4993111;28;20092;-77
2021/09/21 05:13:14;;;;;;;11.32;7.53;;;13.30;99.90;;;;;;4992050;28;20050;-76
2021/09/21 05:15:41;;;;;;;12.20;8.32;;;13.30;99.90;;;;;;4992224;28;20058;-77
2021/09/21 05:18:09;;;;;;;9.73;7.55;;;13.20;99.90;;;;;;4991787;28;20133;-77
2021/09/21 05:20:36;;;;;;;11.02;8.80;;;13.20;99.90;;;;;;4991669;28;20053;-78
2021/09/21 05:23:03;;;;;;;14.95;7.55;;;13.20;99.90;;;;;;4993310;28;20136;-78
2021/09/21 05:25:30;;;;;;;12.07;8.05;;;13.20;99.90;;;;;;4996635;28;20082;-79
2021/09/21 05:27:57;;;;;;;12.63;7.90;;;13.20;99.90;;;;;;4996328;28;20117;-81
2021/09/21 05:30:24;;;;;;;10.32;8.00;;;13.20;99.90;;;;;;4993779;28;20420;-82
2021/09/21 05:32:51;;;;;;;9.63;8.07;;;13.30;99.90;;;;;;4987102;28;20136;-79
2021/09/21 05:35:19;;;;;;;10.65;7.80;;;13.30;99.90;;;;;;4989039;28;20051;-78
2021/09/21 05:37:46;;;;;;;12.18;8.15;;;13.20;99.90;;;;;;4993375;28;20133;-77
2021/09/21 05:40:16;;;;;;;13.52;8.00;;;13.20;99.90;;;;;;4993064;28;20077;-77
2021/09/21 05:42:43;;;;;;;13.52;8.18;;;13.30;99.90;;;;;;4993090;28;20052;-78
2021/09/21 05:45:10;;;;;;;12.70;8.20;;;13.30;99.90;;;;;;4993638;28;20137;-77
2021/09/21 05:47:40;;;;;;;13.13;7.75;;;13.30;99.90;;;;;;4997165;28;20524;-77
2021/09/21 05:50:07;;;;;;;9.98;7.30;;;13.30;99.90;;;;;;4996829;28;20097;-77
2021/09/21 05:52:36;;;;;;;13.80;8.20;;;13.30;99.90;;;;;;4997336;28;20066;-77
2021/09/21 05:55:04;;;;;;;11.45;7.90;;;13.30;99.90;;;;;;4996799;28;20152;-77
2021/09/21 05:57:31;;;;;;;11.18;7.43;;;13.40;99.90;;;;;;4996763;28;20144;-78
2021/09/21 05:59:57;;;;;;;13.82;7.47;;;13.40;99.90;;;;;;4997091;28;20060;-79
2021/09/21 06:02:24;;;;;;;12.25;8.30;;;13.50;99.90;;;;;;4996710;28;20089;-79
2021/09/21 06:04:51;;;;;;;8.98;7.18;;;13.50;99.90;;;;;;4996216;28;20054;-78
2021/09/21 06:07:19;;;;;;;10.25;7.10;;;13.60;99.90;;;;;;4996680;28;20420;-80
2021/09/21 06:09:47;;;;;;;10.00;7.30;;;13.70;99.90;;;;;;4996772;28;20089;-79
2021/09/21 06:12:14;;;;;;;10.93;7.38;;;13.70;99.90;;;;;;4997085;28;20133;-79
2021/09/21 06:14:41;;;;;;;9.00;7.15;;;13.70;99.90;;;;;;4999880;28;20144;-78
2021/09/21 06:17:08;;;;;;;9.05;6.80;;;13.70;99.90;;;;;;4997256;28;20081;-78
2021/09/21 06:19:35;;;;;;;10.68;7.32;;;13.80;99.90;;;;;;4998054;28;20227;-77
2021/09/21 06:22:02;;;;;;;9.38;7.40;;;13.90;99.90;;;;;;4996159;28;20082;-77
2021/09/21 06:24:29;;;;;;;11.20;7.00;;;14.00;99.90;;;;;;4996258;28;20137;-79
2021/09/21 06:26:57;;;;;;;9.80;6.88;;;14.10;99.90;;;;;;4990534;28;20471;-78
2021/09/21 06:29:24;;;;;;;10.52;7.07;;;14.30;99.90;;;;;;4996106;28;20129;-78
2021/09/21 06:31:51;;;;;;;11.25;7.50;;;14.90;99.90;;;;;;4995937;28;20499;-80
2021/09/21 06:34:18;;;;;;;9.30;7.00;;;15.70;99.90;;;;;;4996366;28;20050;-78
2021/09/21 06:36:45;;;;;;;9.10;6.95;;;16.60;99.90;;;;;;4990916;28;20053;-80
2021/09/21 06:39:12;;;;;;;12.05;7.28;;;17.50;99.90;;;;;;4998238;28;20580;-79
2021/09/21 06:41:38;;;;;;;9.48;6.80;;;18.20;99.90;;;;;;4996258;28;20136;-81
2021/09/21 06:44:07;;;;;;;11.10;8.85;;;18.90;99.90;;;;;;4995505;28;20056;-79
2021/09/21 06:46:33;;;;;;;9.43;7.10;;;19.50;99.90;;;;;;4992023;28;20105;-79
2021/09/21 06:49:00;;;;;;;9.07;6.30;;;20.00;99.90;;;;;;4982597;28;20058;-80
2021/09/21 06:51:27;;;;;;;10.98;7.35;;;20.50;99.90;;;;;;4989796;28;20398;-77
2021/09/21 06:53:54;;;;;;;41.55;10.13;;;20.30;99.90;;;;;;4980134;28;20465;-78
2021/09/21 06:56:26;;;;;;;12.98;6.43;;;20.60;99.90;;;;;;4991473;28;20130;-78
2021/09/21 06:58:53;;;;;;;13.18;6.75;;;20.90;99.90;;;;;;4980846;28;20050;-77
2021/09/21 07:01:21;;;;;;;11.80;6.13;;;21.40;99.90;;;;;;4978490;28;20429;-77
2021/09/21 07:03:48;;;;;;;12.80;6.38;;;21.40;99.90;;;;;;4978810;28;20430;-77
2021/09/21 07:06:15;;;;;;;8.20;6.05;;;21.40;99.90;;;;;;4989531;28;20491;-78
2021/09/21 07:08:42;;;;;;;9.10;6.00;;;21.40;99.90;;;;;;4978879;28;20230;-78
2021/09/21 07:11:09;;;;;;;8.18;5.95;;;21.20;99.90;;;;;;4985426;28;20078;-78
2021/09/21 07:13:39;;;;;;;8.50;5.95;;;21.10;99.90;;;;;;4979106;28;20426;-78
2021/09/21 07:16:07;;;;;;;8.20;6.03;;;20.80;99.90;;;;;;4976219;28;20138;-78
2021/09/21 07:18:35;;;;;;;8.10;5.53;;;20.10;99.90;;;;;;4976452;28;20509;-79
2021/09/21 07:21:02;;;;;;;8.15;5.85;;;20.00;99.90;;;;;;4975850;28;20082;-79
2021/09/21 07:23:29;;;;;;;11.45;5.85;;;20.10;99.90;;;;;;4975756;28;20109;-78
2021/09/21 07:25:56;;;;;;;12.93;6.40;;;20.40;99.90;;;;;;4975144;28;20046;-79
2021/09/21 07:28:22;;;;;;;10.52;6.30;;;20.40;99.90;;;;;;5009761;23;20077;-79
2021/09/21 07:30:49;;;;;;;7.60;5.97;;;20.40;99.90;;;;;;4998489;28;20086;-81
2021/09/21 07:33:16;;;;;;;9.98;6.60;;;20.30;99.90;;;;;;4999877;28;20184;-78
2021/09/21 07:35:46;;;;;;;7.80;6.28;;;20.20;99.90;;;;;;4996551;28;20054;-78
2021/09/21 07:38:13;;;;;;;8.18;6.43;;;20.10;99.90;;;;;;4996905;28;20137;-79
2021/09/21 07:40:41;;;;;;;8.82;6.40;;;20.30;99.90;;;;;;4996480;28;20077;-78
2021/09/21 07:43:08;;;;;;;8.05;6.15;;;20.60;99.90;;;;;;4996527;28;20137;-78
2021/09/21 07:45:36;;;;;;;7.53;5.97;;;20.60;99.90;;;;;;4996662;28;20485;-78
2021/09/21 07:48:04;;;;;;;9.98;5.90;;;20.70;99.90;;;;;;4997723;28;20165;-79
2021/09/21 07:50:32;;;;;;;14.10;6.30;;;20.80;99.90;;;;;;4999557;28;20077;-77
2021/09/21 07:53:00;;;;;;;10.02;5.90;;;20.80;99.90;;;;;;4999130;28;20097;-80
2021/09/21 07:55:27;;;;;;;11.45;6.40;;;20.70;99.90;;;;;;4996904;28;20061;-78
2021/09/21 07:57:54;;;;;;;9.40;5.80;;;20.60;99.90;;;;;;4995908;28;20053;-78
2021/09/21 08:00:22;;;;;;;9.00;6.10;;;20.80;99.90;;;;;;4996117;28;20137;-78
2021/09/21 08:02:49;;;;;;;8.88;5.88;;;20.80;99.90;;;;;;4998541;28;20128;-78
2021/09/21 08:05:16;;;;;;;8.45;6.07;;;20.80;99.90;;;;;;4998114;28;20049;-80
2021/09/21 08:07:43;;;;;;;6.85;5.63;;;20.70;99.90;;;;;;4999067;28;20129;-78
2021/09/21 08:10:12;;;;;;;9.35;6.18;;;20.60;99.90;;;;;;4993825;28;20141;-79
2021/09/21 08:12:41;;;;;;;6.72;5.70;;;21.00;99.90;;;;;;4994226;28;20396;-77
2021/09/21 08:15:09;;;;;;;10.70;5.63;;;20.50;99.90;;;;;;4996220;28;20060;-79
2021/09/21 08:17:37;;;;;;;7.93;5.95;;;20.20;99.90;;;;;;5004318;28;20050;-79
2021/09/21 08:20:05;;;;;;;6.13;5.45;;;20.50;99.90;;;;;;5002566;28;20047;-79
2021/09/21 08:22:33;;;;;;;7.97;6.03;;;20.80;99.90;;;;;;5003856;28;20089;-80
2021/09/21 08:25:00;;;;;;;7.32;5.88;;;20.60;99.90;;;;;;5000543;28;20090;-79
2021/09/21 08:27:29;;;;;;;6.55;4.72;;;20.40;99.90;;;;;;5001501;28;20053;-80
2021/09/21 08:29:56;;;;;;;6.32;5.07;;;20.10;99.90;;;;;;5002921;28;20050;-80
2021/09/21 08:32:23;;;;;;;7.13;5.50;;;20.30;99.90;;;;;;5000443;28;20089;-81
2021/09/21 08:34:49;;;;;;;6.90;5.00;;;20.30;99.90;;;;;;5000065;28;20114;-80
2021/09/21 08:37:16;;;;;;;6.20;5.10;;;20.60;99.90;;;;;;4999458;28;20058;-79
2021/09/21 08:39:43;;;;;;;8.18;5.57;;;20.80;99.90;;;;;;5003076;28;20429;-80
2021/09/21 08:42:11;;;;;;;13.68;5.30;;;20.70;99.90;;;;;;4999357;28;20089;-80
2021/09/21 08:44:40;;;;;;;5.68;4.75;;;21.10;99.90;;;;;;4996034;28;20788;-80
2021/09/21 08:47:07;;;;;;;8.32;5.15;;;20.80;99.90;;;;;;4997213;28;20616;-79
2021/09/21 08:49:34;;;;;;;6.82;4.70;;;20.70;99.90;;;;;;4998836;28;20141;-79
2021/09/21 08:52:01;;;;;;;8.35;5.65;;;20.80;99.90;;;;;;4997818;28;20046;-79
2021/09/21 08:54:28;;;;;;;11.27;4.68;;;20.70;99.90;;;;;;4999905;28;20109;-78
2021/09/21 08:56:55;;;;;;;38.00;7.75;;;20.70;99.90;;;;;;4999014;28;20046;-80
2021/09/21 08:59:30;;;;;;;15.90;5.93;;;20.50;99.90;;;;;;4999791;28;20355;-81
2021/09/21 09:02:04;;;;;;;34.08;7.32;;;20.60;99.90;;;;;;5000093;28;20069;-81
2021/09/21 09:04:31;;;;;;;7.57;4.97;;;20.30;99.90;;;;;;4997548;28;20528;-82
2021/09/21 09:06:59;;;;;;;6.07;4.82;;;20.20;99.90;;;;;;4998178;28;20086;-82
2021/09/21 09:09:30;;;;;;;7.65;4.43;;;20.00;99.90;;;;;;5001408;28;20106;-80
2021/09/21 09:11:59;;;;;;;6.97;5.00;;;20.00;99.90;;;;;;5001783;28;20054;-81
2021/09/21 09:14:29;;;;;;;7.40;5.05;;;19.90;99.90;;;;;;5001381;28;20562;-79
2021/09/21 09:17:00;;;;;;;6.35;4.20;;;19.90;99.90;;;;;;4999544;28;20133;-80
2021/09/21 09:19:35;;;;;;;7.13;4.50;;;19.70;99.90;;;;;;4997674;28;20117;-81
2021/09/21 09:22:07;;;;;;;8.38;4.93;;;19.40;99.90;;;;;;5004274;28;20054;-81
2021/09/21 09:24:46;;;;;;;7.90;4.55;;;19.30;99.90;;;;;;5003451;28;20144;-81
2021/09/21 09:27:14;;;;;;;7.60;4.47;;;19.00;99.90;;;;;;5005393;28;20189;-81
2021/09/21 09:29:53;;;;;;;9.27;5.32;;;18.70;99.90;;;;;;5006983;28;20061;-81
2021/09/21 09:32:21;;;;;;;7.28;4.28;;;18.50;99.90;;;;;;5006115;28;20089;-81
2021/09/21 09:34:48;;;;;;;7.55;4.50;;;18.50;99.90;;;;;;5003934;28;20089;-81
2021/09/21 09:37:15;;;;;;;8.23;3.95;;;18.40;99.90;;;;;;5003856;28;20130;-82
2021/09/21 09:39:42;;;;;;;7.13;4.35;;;18.50;99.90;;;;;;5000788;28;20467;-81
2021/09/21 09:42:11;;;;;;;7.90;3.90;;;18.60;99.90;;;;;;5003096;28;20129;-80
2021/09/21 09:44:38;;;;;;;7.47;4.72;;;18.80;99.90;;;;;;5005372;28;20050;-80
2021/09/21 09:47:09;;;;;;;9.10;4.85;;;18.80;99.90;;;;;;5006104;28;20070;-79
2021/09/21 09:49:39;;;;;;;5.97;4.13;;;18.80;99.90;;;;;;5005918;28;20118;-80
2021/09/21 09:52:08;;;;;;;7.47;4.30;;;18.80;99.90;;;;;;5005503;28;20076;-81
2021/09/21 09:54:36;;;;;;;4.88;4.05;;;18.80;99.90;;;;;;5005185;28;20144;-79
2021/09/21 09:57:04;;;;;;;9.77;4.25;;;18.80;99.90;;;;;;5005557;28;20050;-79
2021/09/21 09:59:32;;;;;;;6.72;3.90;;;18.80;99.90;;;;;;5005675;28;20137;-81
2021/09/21 10:01:59;;;;;;;6.47;4.32;;;18.80;99.90;;;;;;5005764;28;20054;-81
2021/09/21 10:04:26;;;;;;;7.78;4.38;;;19.00;99.90;;;;;;5006447;28;20084;-81
2021/09/21 10:06:55;;;;;;;6.53;4.50;;;18.80;99.90;;;;;;5003617;28;20069;-82
2021/09/21 10:09:23;;;;;;;8.48;4.47;;;19.00;99.90;;;;;;5003007;28;20493;-80
2021/09/21 10:11:53;;;;;;;8.23;5.82;;;19.20;99.90;;;;;;5004330;28;20137;-82
2021/09/21 10:14:22;;;;;;;6.68;4.20;;;19.20;99.90;;;;;;5004600;28;20567;-81
2021/09/21 10:16:54;;;;;;;7.15;4.25;;;19.00;99.90;;;;;;5007319;28;20404;-82
2021/09/21 10:19:23;;;;;;;6.50;4.63;;;19.00;99.90;;;;;;5004425;28;20082;-79
2021/09/21 10:21:53;;;;;;;6.15;4.40;;;19.10;99.90;;;;;;5003693;28;20106;-79
2021/09/21 10:24:31;;;;;;;7.05;4.18;;;19.30;99.90;;;;;;5003303;28;20570;-79
2021/09/21 10:27:02;;;;;;;7.00;4.65;;;19.30;99.90;;;;;;5003076;28;20051;-80
2021/09/21 10:29:30;;;;;;;5.47;4.50;;;19.20;99.90;;;;;;5002447;28;20065;-80
2021/09/21 10:31:57;;;;;;;7.10;4.10;;;19.10;99.90;;;;;;4999964;28;20074;-80
2021/09/21 10:34:24;;;;;;;6.47;4.10;;;19.10;99.90;;;;;;5000045;28;20142;-79
2021/09/21 10:36:53;;;;;;;7.47;3.92;;;19.00;99.90;;;;;;4999791;28;20110;-80
2021/09/21 10:39:23;;;;;;;5.68;4.45;;;19.20;99.90;;;;;;5000872;28;20061;-80
2021/09/21 10:41:52;;;;;;;5.30;4.10;;;19.40;99.90;;;;;;5000791;28;20077;-82
2021/09/21 10:44:20;;;;;;;7.00;4.38;;;19.50;99.90;;;;;;4999571;28;20137;-81
2021/09/21 10:46:50;;;;;;;7.07;4.20;;;19.50;99.90;;;;;;5000244;28;20130;-81
2021/09/21 10:49:26;;;;;;;9.00;4.53;;;19.50;99.90;;;;;;5002159;28;20081;-81
2021/09/21 10:51:55;;;;;;;6.38;4.47;;;19.40;99.90;;;;;;5001284;28;20161;-80
2021/09/21 10:54:31;;;;;;;6.35;4.50;;;19.30;99.90;;;;;;5003230;28;20116;-82
2021/09/21 10:57:13;;;;;;;7.45;4.60;;;19.40;99.90;;;;;;5001314;28;20146;-81
2021/09/21 10:59:41;;;;;;;6.97;4.40;;;19.50;99.90;;;;;;4998357;28;20057;-82
2021/09/21 11:02:16;;;;;;;9.52;4.40;;;19.60;99.90;;;;;;4999468;28;20294;-81
2021/09/21 11:04:45;;;;;;;6.53;4.32;;;19.70;99.90;;;;;;4999180;28;20054;-78
2021/09/21 11:07:13;;;;;;;6.38;4.40;;;19.80;99.90;;;;;;4999091;28;20074;-81
2021/09/21 11:09:42;;;;;;;6.15;4.10;;;19.90;99.90;;;;;;4998841;28;20051;-83
2021/09/21 11:12:12;;;;;;;6.85;4.43;;;20.00;99.90;;;;;;5006397;28;20086;-81
2021/09/21 11:14:41;;;;;;;5.57;4.18;;;20.10;99.90;;;;;;5006368;28;20132;-81
2021/09/21 11:17:15;;;;;;;8.45;4.40;;;20.20;99.90;;;;;;5009480;28;20050;-80
2021/09/21 11:20:00;;;;;;;6.43;4.18;;;20.10;99.90;;;;;;5011735;28;20050;-82
2021/09/21 11:23:00;;;;;;;5.97;4.60;;;19.90;99.90;;;;;;5012722;28;20050;-81
2021/09/21 11:25:43;;;;;;;7.43;4.53;;;19.70;99.90;;;;;;5014490;28;20058;-81
2021/09/21 11:33:54;;;;;;;6.93;4.40;;;19.20;99.90;;;;;;5011119;28;20054;-81
2021/09/21 11:36:27;;;;;;;6.05;4.28;;;19.10;99.90;;;;;;5008356;28;20374;-81
2021/09/21 11:39:05;;;;;;;6.05;4.28;;;19.00;99.90;;;;;;5005877;28;20397;-79
2021/09/21 11:41:54;;;;;;;6.65;4.30;;;19.00;99.90;;;;;;5005293;28;20061;-80
2021/09/21 11:44:25;;;;;;;6.50;4.22;;;19.10;99.90;;;;;;5004163;28;20054;-82
2021/09/21 11:47:11;;;;;;;9.00;4.25;;;19.30;99.90;;;;;;5005612;28;20061;-81
2021/09/21 11:49:52;;;;;;;8.80;4.00;;;19.50;99.90;;;;;;5004213;28;20054;-80
2021/09/21 11:52:28;;;;;;;5.38;4.38;;;19.80;99.90;;;;;;5004307;28;20133;-80
2021/09/21 11:55:03;;;;;;;5.40;4.13;;;19.80;99.90;;;;;;5005364;28;20054;-80
2021/09/21 11:57:51;;;;;;;6.88;4.60;;;19.80;99.90;;;;;;5006393;28;20054;-79
2021/09/21 12:00:31;;;;;;;6.50;4.07;;;19.60;99.90;;;;;;5006831;28;20073;-81
2021/09/21 12:03:07;;;;;;;5.80;3.88;;;19.70;99.90;;;;;;5008787;28;20117;-81
2021/09/21 12:05:36;;;;;;;5.53;3.95;;;19.90;99.90;;;;;;5008130;28;20064;-81
2021/09/21 12:08:06;;;;;;;5.38;4.30;;;20.00;99.90;;;;;;5008041;28;20042;-84
2021/09/21 12:10:34;;;;;;;8.38;4.10;;;20.00;99.90;;;;;;5006903;28;20053;-82
2021/09/21 12:13:11;;;;;;;5.63;4.32;;;20.00;99.90;;;;;;5010322;28;20138;-80
2021/09/21 12:15:56;;;;;;;5.32;4.40;;;20.20;99.90;;;;;;5011004;28;20050;-80
2021/09/21 12:18:45;;;;;;;5.60;4.00;;;20.20;99.90;;;;;;5010091;28;20051;-81
2021/09/21 12:21:26;;;;;;;6.20;4.05;;;20.10;99.90;;;;;;5006443;28;20081;-81
2021/09/21 12:24:04;;;;;;;5.40;4.03;;;20.00;99.90;;;;;;5007526;28;20058;-81
2021/09/21 12:26:32;;;;;;;4.70;3.80;;;19.80;99.90;;;;;;5004651;28;20126;-81
2021/09/21 12:35:56;;;;;;;5.43;4.22;;;19.30;99.90;;;;;;4999968;28;20074;-79
2021/09/21 12:38:27;;;;;;;5.32;4.10;;;19.50;99.90;;;;;;5000408;28;20050;-79
2021/09/21 12:41:14;;;;;;;4.75;4.20;;;19.60;99.90;;;;;;5000228;28;20065;-80
2021/09/21 12:44:18;;;;;;;7.15;4.28;;;19.60;99.90;;;;;;5005875;28;20046;-80
2021/09/21 12:46:51;;;;;;;5.65;4.43;;;19.40;99.90;;;;;;5005634;28;20046;-80
2021/09/21 12:49:19;;;;;;;9.40;4.95;;;19.40;99.90;;;;;;5005860;28;20066;-82
2021/09/21 12:51:57;;;;;;;6.00;4.78;;;19.30;99.90;;;;;;5005005;28;20483;-81
2021/09/21 12:54:32;;;;;;;5.88;4.70;;;19.40;99.90;;;;;;5003363;28;20057;-81
2021/09/21 12:57:00;;;;;;;6.82;4.95;;;19.40;99.90;;;;;;5004441;28;20412;-80
2021/09/21 12:59:40;;;;;;;6.18;4.65;;;19.20;99.90;;;;;;5005128;28;20070;-80
2021/09/21 13:02:11;;;;;;;6.38;4.75;;;19.40;99.90;;;;;;4997083;28;20061;-81
2021/09/21 13:04:38;;;;;;;7.28;4.30;;;19.40;99.90;;;;;;5004629;28;20060;-83
2021/09/21 13:07:08;;;;;;;5.25;4.30;;;19.50;99.90;;;;;;5004848;28;20384;-82
2021/09/21 13:09:38;;;;;;;8.10;4.95;;;19.70;99.90;;;;;;5004932;28;20081;-81